Time;durP1;ratioP1;P1;durP2;ratioP2;P2;SDS_P1;SDS_P2;PMS_P1;PMS_P2;Temp;Humidity;BMP_temperature;BMP_pressure;BME280_temperature;BME280_humidity;BME280_pressure;Samples;Min_cycle;Max_cycle;Signal;HPM_P1;HPM_P2
2023/01/08 00:00:50;;;;;;;6.22;2.37;;;;;;;-2.41;49.80;101895.64;1766779;80;21047;-61
2023/01/08 00:03:17;;;;;;;8.35;3.75;;;;;;;-2.46;49.81;101896.94;1764426;80;21066;-62
2023/01/08 00:05:44;;;;;;;9.95;3.60;;;;;;;-2.51;49.65;101902.09;1768305;80;21039;-62
2023/01/08 00:08:11;;;;;;;9.93;3.60;;;;;;;-2.53;49.77;101900.39;1764345;80;21185;-61
2023/01/08 00:10:38;;;;;;;7.70;2.65;;;;;;;-2.51;49.77;101907.69;1750784;80;21123;-61
2023/01/08 00:13:06;;;;;;;9.18;3.15;;;;;;;-2.49;49.82;101908.53;1752774;80;21098;-61
2023/01/08 00:15:34;;;;;;;10.80;3.25;;;;;;;-2.55;49.61;101904.26;1751779;80;21300;-61
2023/01/08 00:18:01;;;;;;;10.30;4.03;;;;;;;-2.58;49.74;101908.12;1743465;80;21043;-61
2023/01/08 00:20:28;;;;;;;7.08;2.50;;;;;;;-2.61;49.95;101905.54;1746657;80;21174;-60
2023/01/08 00:22:55;;;;;;;7.60;2.72;;;;;;;-2.61;50.06;101908.12;1752607;80;21569;-60
2023/01/08 00:25:21;;;;;;;8.50;2.42;;;;;;;-2.60;50.04;101915.00;1754559;80;21082;-60
2023/01/08 00:27:48;;;;;;;6.95;2.50;;;;;;;-2.58;49.98;101911.14;1747787;80;21164;-61
2023/01/08 00:30:15;;;;;;;8.23;3.20;;;;;;;-2.58;50.03;101907.27;1745314;80;21059;-61
2023/01/08 00:32:42;;;;;;;9.30;2.83;;;;;;;-2.63;50.11;101907.27;1743047;80;21205;-60
2023/01/08 00:35:09;;;;;;;6.20;2.40;;;;;;;-2.63;50.11;101907.27;1761618;80;21031;-60
2023/01/08 00:37:36;;;;;;;10.03;2.65;;;;;;;-2.61;50.07;101902.96;1704306;83;21180;-59
2023/01/08 00:40:05;;;;;;;12.23;3.40;;;;;;;-2.62;50.20;101900.83;1752739;80;21056;-63
2023/01/08 00:42:32;;;;;;;7.62;2.83;;;;;;;-2.56;50.35;101905.55;1743786;80;21113;-62
2023/01/08 00:44:58;;;;;;;8.53;3.10;;;;;;;-2.50;50.58;101905.55;1753015;80;21648;-60
2023/01/08 00:47:25;;;;;;;11.03;4.28;;;;;;;-2.50;50.58;101905.55;1742573;80;21046;-61
2023/01/08 00:49:51;;;;;;;6.08;2.45;;;;;;;-2.21;49.71;101912.36;1753078;80;21404;-60
2023/01/08 00:52:18;;;;;;;10.63;2.85;;;;;;;-2.63;50.43;101909.84;1745973;80;21063;-61
2023/01/08 00:54:45;;;;;;;10.28;4.25;;;;;;;-2.69;50.81;101904.28;1742231;80;21159;-62
2023/01/08 00:57:12;;;;;;;12.15;5.37;;;;;;;-2.67;50.86;101908.14;1744818;80;21348;-60
2023/01/08 00:59:39;;;;;;;12.35;3.72;;;;;;;-2.65;50.72;101915.00;1743981;80;21727;-61
2023/01/08 01:02:05;;;;;;;7.92;3.10;;;;;;;-2.65;50.83;101909.84;1752667;80;21090;-61
2023/01/08 01:04:32;;;;;;;9.95;3.90;;;;;;;-2.64;50.56;101910.69;1753639;80;21217;-61
2023/01/08 01:06:59;;;;;;;8.00;3.05;;;;;;;-2.61;50.53;101908.12;1755695;80;21043;-60
2023/01/08 01:09:25;;;;;;;8.50;3.25;;;;;;;-2.62;50.33;101910.28;1765299;80;21845;-60
2023/01/08 01:11:52;;;;;;;9.03;3.83;;;;;;;-2.67;49.97;101909.44;1761524;80;21011;-60
2023/01/08 01:14:18;;;;;;;10.23;3.30;;;;;;;-2.75;49.98;101906.00;1761705;80;21054;-59
2023/01/08 01:16:47;;;;;;;11.48;5.22;;;;;;;-2.85;49.98;101903.41;1750650;80;21028;-60
2023/01/08 01:19:15;;;;;;;12.58;4.17;;;;;;;-2.91;50.25;101896.95;1715328;82;21996;-61
2023/01/08 01:21:41;;;;;;;9.23;3.77;;;;;;;-2.94;50.39;101895.70;1750998;80;21192;-60
2023/01/08 01:24:10;;;;;;;13.30;4.55;;;;;;;-2.96;50.58;101892.23;1753715;80;21027;-61
2023/01/08 01:26:36;;;;;;;8.68;3.08;;;;;;;-2.97;50.58;101889.25;1763422;80;21011;-60
2023/01/08 01:29:03;;;;;;;8.40;2.98;;;;;;;-3.00;50.46;101887.52;1763144;80;21031;-60
2023/01/08 01:31:30;;;;;;;8.20;4.08;;;;;;;-3.03;50.46;101886.66;1760690;80;21084;-61
2023/01/08 01:33:57;;;;;;;10.93;3.37;;;;;;;-3.06;50.67;101880.22;1751355;80;21883;-62
2023/01/08 01:36:24;;;;;;;8.85;3.27;;;;;;;-3.05;50.82;101878.09;1752178;80;22135;-61
2023/01/08 01:38:52;;;;;;;12.55;5.50;;;;;;;-3.05;50.82;101878.09;1767373;80;21098;-62
2023/01/08 01:41:24;;;;;;;9.85;3.67;;;;;;;-3.00;50.98;101881.52;1751147;80;21106;-62
2023/01/08 01:43:51;;;;;;;10.05;4.45;;;;;;;-2.99;50.92;101876.80;1752284;80;21059;-62
2023/01/08 01:46:38;;;;;;;11.28;4.60;;;;;;;-3.02;50.91;101880.66;1759377;80;21256;-61
2023/01/08 01:49:11;;;;;;;6.95;3.37;;;;;;;-3.04;50.99;101883.67;1761331;80;21011;-60
2023/01/08 01:51:40;;;;;;;12.25;3.50;;;;;;;-3.09;51.15;101885.36;1757199;80;21071;-60
2023/01/08 01:54:08;;;;;;;9.93;3.80;;;;;;;-3.11;51.30;101881.52;1758748;80;21526;-61
2023/01/08 01:56:36;;;;;;;13.60;4.08;;;;;;;-3.06;51.17;101877.64;1764205;80;21744;-61
2023/01/08 01:59:03;;;;;;;10.93;4.25;;;;;;;-3.07;51.28;101881.94;1752181;80;22246;-60
2023/01/08 02:01:30;;;;;;;10.00;3.52;;;;;;;-3.03;51.38;101878.50;1749742;80;21075;-60
2023/01/08 02:03:56;;;;;;;10.35;4.55;;;;;;;-3.03;51.27;101873.78;1758230;80;21669;-60
2023/01/08 02:06:46;;;;;;;11.00;4.80;;;;;;;-3.01;51.43;101880.67;1756986;80;22246;-61
2023/01/08 02:09:42;;;;;;;8.05;2.58;;;;;;;-2.95;51.44;101882.38;1753770;80;21063;-60
2023/01/08 02:12:43;;;;;;;8.35;3.42;;;;;;;-2.92;51.25;101880.24;1757968;80;21254;-61
2023/01/08 02:15:15;;;;;;;12.18;4.00;;;;;;;-2.93;51.18;101884.95;1761623;80;21556;-60
2023/01/08 02:18:14;;;;;;;10.93;3.95;;;;;;;-2.97;51.35;101890.98;1762878;80;21056;-61
2023/01/08 02:20:49;;;;;;;10.53;3.62;;;;;;;-2.92;51.16;101887.97;1768835;80;21074;-60
2023/01/08 02:23:39;;;;;;;7.45;3.58;;;;;;;-2.96;51.14;101896.09;1760142;80;27032;-60
2023/01/08 02:26:20;;;;;;;9.88;3.30;;;;;;;-2.98;51.12;101892.67;1756404;80;21962;-60
2023/01/08 02:29:15;;;;;;;8.58;3.58;;;;;;;-3.00;51.21;101880.23;1763912;79;21070;-60
2023/01/08 02:31:42;;;;;;;9.40;3.22;;;;;;;-2.98;51.38;101879.80;1755381;80;21067;-60
2023/01/08 02:34:09;;;;;;;10.13;4.47;;;;;;;-2.95;51.44;101878.95;1763186;80;21089;-60
2023/01/08 02:36:50;;;;;;;9.63;3.30;;;;;;;-2.94;51.36;101880.65;1757167;80;21181;-59
2023/01/08 02:39:55;;;;;;;9.88;2.75;;;;;;;-2.93;51.32;101883.22;1772766;80;21254;-60
2023/01/08 02:43:01;;;;;;;11.75;3.27;;;;;;;-2.96;51.48;101884.51;1768645;80;21003;-60
2023/01/08 02:45:45;;;;;;;12.73;5.45;;;;;;;-2.95;51.57;101890.55;1757818;80;21762;-60
2023/01/08 02:48:25;;;;;;;9.23;3.60;;;;;;;-2.93;51.75;101885.80;1787543;80;21058;-60
2023/01/08 02:51:13;;;;;;;10.20;3.42;;;;;;;-2.91;51.80;101889.23;1770678;80;21030;-59
2023/01/08 02:53:45;;;;;;;8.35;3.30;;;;;;;-2.93;51.84;101881.94;1786021;80;21145;-61
2023/01/08 02:56:16;;;;;;;9.73;3.27;;;;;;;-3.00;51.98;101878.50;1719075;83;21043;-61
2023/01/08 02:58:42;;;;;;;10.58;3.02;;;;;;;-3.00;52.26;101879.79;1732514;82;21521;-60
2023/01/08 03:01:10;;;;;;;11.57;4.15;;;;;;;-2.95;52.26;101877.66;1736347;82;21085;-61
2023/01/08 03:03:40;;;;;;;11.83;5.33;;;;;;;-2.85;52.36;101875.07;1707951;83;21098;-61
2023/01/08 03:06:15;;;;;;;10.75;3.50;;;;;;;-2.85;52.36;101875.07;1704155;82;22619;-62
2023/01/08 03:08:44;;;;;;;7.92;2.77;;;;;;;-2.84;52.07;101874.22;1708502;83;21145;-61
2023/01/08 03:11:14;;;;;;;11.80;4.83;;;;;;;-2.85;52.08;101874.22;1692434;83;21137;-60
2023/01/08 03:14:03;;;;;;;12.85;3.70;;;;;;;-2.86;52.21;101874.66;1749149;80;21007;-60
2023/01/08 03:16:35;;;;;;;11.63;4.50;;;;;;;-2.83;52.17;101872.50;1748800;80;21637;-60
2023/01/08 03:19:10;;;;;;;9.75;3.12;;;;;;;-2.84;52.19;101874.22;1748985;80;21893;-61
2023/01/08 03:21:37;;;;;;;12.80;3.15;;;;;;;-2.80;52.25;101882.37;1748239;81;21059;-61
2023/01/08 03:24:05;;;;;;;11.90;3.80;;;;;;;-2.76;52.51;101884.95;1748853;80;21417;-61
2023/01/08 03:26:31;;;;;;;9.98;4.67;;;;;;;-2.76;52.51;101884.95;1769198;80;21604;-61
2023/01/08 03:28:58;;;;;;;10.88;3.98;;;;;;;-2.72;52.28;101884.95;1757783;80;21079;-62
2023/01/08 03:31:26;;;;;;;9.85;3.33;;;;;;;-2.72;51.97;101873.77;1748048;82;21152;-61
2023/01/08 03:33:53;;;;;;;10.25;4.42;;;;;;;-2.72;51.97;101873.77;1749413;80;21050;-60
2023/01/08 03:36:24;;;;;;;8.63;3.62;;;;;;;-2.69;51.98;101881.50;1748645;80;21048;-60
2023/01/08 03:38:59;;;;;;;12.30;3.75;;;;;;;-2.69;52.00;101878.92;1736784;80;21030;-59
2023/01/08 03:41:28;;;;;;;11.63;4.42;;;;;;;-2.69;52.00;101878.92;1748140;82;21122;-62
2023/01/08 03:43:56;;;;;;;8.68;3.85;;;;;;;-2.66;51.90;101884.07;1748758;80;21285;-61
2023/01/08 03:46:32;;;;;;;10.60;4.42;;;;;;;-2.66;51.83;101887.50;1762630;80;21094;-60
2023/01/08 03:48:59;;;;;;;8.20;3.55;;;;;;;-2.69;51.78;101883.66;1775942;80;21047;-61
2023/01/08 03:51:25;;;;;;;13.43;3.87;;;;;;;-2.72;51.86;101875.93;1748110;82;21098;-61
2023/01/08 03:53:55;;;;;;;10.13;3.45;;;;;;;-2.69;52.06;101878.92;1754020;80;21137;-60
2023/01/08 03:56:22;;;;;;;10.43;4.22;;;;;;;-2.67;52.00;101876.78;1745577;80;21432;-59
2023/01/08 03:58:48;;;;;;;7.50;3.77;;;;;;;-2.66;52.00;101879.77;1776940;80;20991;-61
2023/01/08 04:01:15;;;;;;;8.80;3.92;;;;;;;-2.66;51.94;101886.20;1749594;80;21106;-61
2023/01/08 04:03:42;;;;;;;13.08;3.85;;;;;;;-2.63;51.94;101881.50;1752476;80;21121;-60
2023/01/08 04:06:08;;;;;;;11.73;4.50;;;;;;;-2.62;51.94;101878.07;1748748;80;21623;-60
2023/01/08 04:08:35;;;;;;;10.72;3.83;;;;;;;-2.61;51.94;101881.06;1763351;80;21264;-60
2023/01/08 04:11:01;;;;;;;10.30;4.45;;;;;;;-2.60;51.92;101874.20;1752531;80;21031;-60
2023/01/08 04:13:28;;;;;;;14.98;6.37;;;;;;;-2.60;51.94;101878.07;1753993;80;21019;-60
2023/01/08 04:15:54;;;;;;;13.80;5.15;;;;;;;-2.62;51.86;101879.36;1756310;80;21042;-60
2023/01/08 04:18:21;;;;;;;10.75;3.27;;;;;;;-2.60;51.94;101888.38;1778332;80;21051;-59
2023/01/08 04:20:47;;;;;;;9.03;3.27;;;;;;;-2.68;51.96;101890.95;1743618;82;21897;-59
2023/01/08 04:23:14;;;;;;;10.65;3.65;;;;;;;-2.64;52.04;101887.50;1720626;83;21560;-60
2023/01/08 04:25:40;;;;;;;10.03;3.77;;;;;;;-2.59;52.08;101890.93;1725128;82;21530;-59
2023/01/08 04:28:07;;;;;;;9.10;3.75;;;;;;;-2.57;52.11;101894.39;1768398;80;21059;-60
2023/01/08 04:30:34;;;;;;;9.48;3.37;;;;;;;-2.52;51.95;101892.66;1764825;80;21038;-62
2023/01/08 04:33:01;;;;;;;9.15;3.50;;;;;;;-2.50;51.94;101893.51;1750659;82;21884;-62
2023/01/08 04:35:28;;;;;;;10.15;3.10;;;;;;;-2.51;51.96;101888.35;1751529;80;21076;-61
2023/01/08 04:37:54;;;;;;;10.18;3.55;;;;;;;-2.50;51.98;101887.50;1770876;80;21085;-61
2023/01/08 04:40:21;;;;;;;19.70;4.40;;;;;;;-2.50;51.96;101881.91;1756407;80;20996;-59
2023/01/08 04:42:47;;;;;;;9.70;4.70;;;;;;;-2.49;52.00;101891.78;1750535;82;21086;-59
2023/01/08 04:45:14;;;;;;;14.80;5.87;;;;;;;-2.53;52.13;101887.06;1754506;80;22323;-60
2023/01/08 04:47:42;;;;;;;13.00;4.05;;;;;;;-2.49;52.41;101891.37;1770187;80;21092;-60
2023/01/08 04:50:09;;;;;;;12.13;3.72;;;;;;;-2.48;52.15;101895.64;1752556;80;21055;-62
2023/01/08 04:52:35;;;;;;;20.32;7.03;;;;;;;-2.50;51.96;101892.22;1756678;80;22195;-61
2023/01/08 04:55:03;;;;;;;15.68;4.67;;;;;;;-2.50;51.96;101892.22;1698113;83;21066;-64
2023/01/08 04:57:30;;;;;;;9.95;5.22;;;;;;;-2.50;52.14;101892.66;1765887;80;21913;-61
2023/01/08 04:59:56;;;;;;;9.20;3.92;;;;;;;-2.53;52.11;101890.93;1751420;80;21080;-59
2023/01/08 05:05:55;;;;;;;11.90;5.50;;;;;;;-2.41;52.32;101892.80;104270;1291;601204;-59
2023/01/08 05:08:24;;;;;;;11.50;4.90;;;;;;;-2.31;52.00;101898.79;106153;1267;60643;-60
2023/01/08 05:10:52;;;;;;;15.10;6.30;;;;;;;-2.38;51.95;101901.20;106028;1267;62744;-61
2023/01/08 05:13:19;;;;;;;15.30;4.90;;;;;;;-2.49;52.14;101906.91;104741;1267;74185;-60
2023/01/08 05:15:46;;;;;;;15.50;4.80;;;;;;;-2.62;52.37;101905.89;104664;1270;72720;-59
2023/01/08 05:18:14;;;;;;;17.70;5.60;;;;;;;-2.75;52.60;101912.95;104526;1271;73814;-61
2023/01/08 05:20:41;;;;;;;16.10;6.00;;;;;;;-2.90;52.99;101917.41;104618;1270;305125;-61
2023/01/08 05:23:08;;;;;;;12.30;5.60;;;;;;;-3.01;53.19;101918.60;104762;1265;61747;-60
2023/01/08 05:25:34;;;;;;;12.20;5.30;;;;;;;-3.09;53.50;101919.96;104628;1269;74203;-59
2023/01/08 05:28:01;;;;;;;14.20;5.70;;;;;;;-3.18;53.74;101916.86;104630;1270;71432;-61
2023/01/08 05:30:28;;;;;;;15.30;6.40;;;;;;;-3.28;53.89;101910.50;104691;1270;73335;-60
2023/01/08 05:32:55;;;;;;;11.40;5.10;;;;;;;-3.36;54.06;101913.06;104832;1264;61320;-61
2023/01/08 05:35:22;;;;;;;12.40;6.20;;;;;;;-3.43;54.40;101917.84;105884;1257;60984;-61
2023/01/08 05:37:49;;;;;;;12.70;4.90;;;;;;;-3.50;54.58;101919.71;105503;1257;75381;-60
2023/01/08 05:40:16;;;;;;;16.10;5.80;;;;;;;-3.56;54.80;101923.81;105699;1257;71207;-61
2023/01/08 05:42:43;;;;;;;15.30;6.50;;;;;;;-3.61;54.91;101921.23;105389;1256;75147;-61
2023/01/08 05:45:10;;;;;;;14.60;5.50;;;;;;;-3.65;55.09;101926.86;105425;1257;62458;-61
2023/01/08 05:47:37;;;;;;;15.40;5.80;;;;;;;-3.71;55.25;101926.84;106194;1266;61202;-61
2023/01/08 05:50:04;;;;;;;14.00;5.70;;;;;;;-3.77;55.48;101922.70;105845;1251;75119;-62
2023/01/08 05:52:31;;;;;;;12.60;5.90;;;;;;;-3.82;55.68;101925.25;105607;1257;72530;-60
2023/01/08 05:54:59;;;;;;;15.00;5.80;;;;;;;-3.87;55.86;101928.48;105831;1260;74951;-61
2023/01/08 05:57:26;;;;;;;11.00;4.90;;;;;;;-3.87;56.08;101934.32;105332;1257;61463;-61
2023/01/08 05:59:53;;;;;;;15.60;5.80;;;;;;;-3.90;55.94;101930.89;105696;1257;61241;-61
2023/01/08 06:02:20;;;;;;;9.90;4.40;;;;;;;-3.94;56.02;101931.55;105463;1254;74034;-60
2023/01/08 06:04:47;;;;;;;12.80;4.90;;;;;;;-3.95;56.25;101939.95;105403;1254;72410;-63
2023/01/08 06:07:14;;;;;;;18.60;7.60;;;;;;;-3.98;56.25;101942.68;105790;1257;73715;-62
2023/01/08 06:09:40;;;;;;;10.40;4.10;;;;;;;-4.00;56.38;101940.59;105678;1254;62476;-60
2023/01/08 06:12:08;;;;;;;15.10;6.40;;;;;;;-4.03;56.53;101935.80;105957;1254;61070;-61
2023/01/08 06:14:35;;;;;;;13.70;4.30;;;;;;;-4.05;56.69;101940.23;106316;1256;75136;-61
2023/01/08 06:17:02;;;;;;;13.10;4.70;;;;;;;-4.06;56.79;101940.39;105881;1260;71601;-60
2023/01/08 06:19:29;;;;;;;15.90;7.30;;;;;;;-4.07;56.74;101941.76;105270;1254;74546;-61
2023/01/08 06:21:55;;;;;;;14.10;5.00;;;;;;;-4.08;56.90;101937.46;107630;1254;62550;-60
2023/01/08 06:24:22;;;;;;;11.80;4.80;;;;;;;-4.08;57.04;101940.05;107092;1254;61256;-61
2023/01/08 06:26:49;;;;;;;9.50;3.30;;;;;;;-4.08;57.06;101938.16;105557;1255;74088;-61
2023/01/08 06:29:16;;;;;;;13.30;4.90;;;;;;;-4.09;57.04;101938.66;105554;1257;72594;-61
2023/01/08 06:31:43;;;;;;;9.20;5.00;;;;;;;-4.09;57.15;101935.76;105379;1256;74792;-61
2023/01/08 06:34:10;;;;;;;12.50;3.50;;;;;;;-4.09;57.34;101932.84;105595;1265;60150;-61
2023/01/08 06:36:37;;;;;;;14.60;4.40;;;;;;;-4.10;57.34;101933.70;106077;1257;62189;-61
2023/01/08 06:39:05;;;;;;;11.20;4.70;;;;;;;-4.10;57.36;101934.21;105795;1257;75625;-63
2023/01/08 06:41:32;;;;;;;9.60;4.00;;;;;;;-4.08;57.53;101932.17;105627;1257;71634;-60
2023/01/08 06:44:00;;;;;;;8.40;3.50;;;;;;;-4.04;57.46;101932.52;105874;1254;74772;-61
2023/01/08 06:46:27;;;;;;;11.40;5.40;;;;;;;-4.02;57.49;101926.88;105523;1260;61264;-61
2023/01/08 06:48:54;;;;;;;11.70;5.00;;;;;;;-4.02;57.40;101929.97;105867;1252;60935;-61
2023/01/08 06:51:21;;;;;;;13.10;4.40;;;;;;;-3.99;57.44;101934.77;105777;1254;74082;-61
2023/01/08 06:53:48;;;;;;;10.50;3.80;;;;;;;-3.97;57.55;101935.66;105561;1254;72382;-62
2023/01/08 06:56:15;;;;;;;8.80;3.40;;;;;;;-3.96;57.45;101937.02;105589;1256;73521;-61
2023/01/08 06:58:42;;;;;;;11.40;4.80;;;;;;;-3.96;57.51;101937.71;105398;1257;61168;-61
2023/01/08 07:01:14;;;;;;;9.70;3.80;;;;;;;-3.95;57.48;101935.99;106921;1254;62665;-62
2023/01/08 10:20:29;;;;;;;21.00;10.40;;;;;;;-2.09;53.24;101886.65;103117;1283;605296;-62
2023/01/08 10:22:56;;;;;;;23.10;9.60;;;;;;;-1.66;52.29;101884.80;104725;1264;89205;-61
2023/01/08 10:25:25;;;;;;;32.60;12.90;;;;;;;-1.66;52.28;101884.80;104648;1265;62209;-61
2023/01/08 10:28:02;;;;;;;26.70;13.30;;;;;;;-1.68;52.04;101880.51;104724;1264;74152;-60
2023/01/08 10:30:34;;;;;;;22.90;9.40;;;;;;;-1.70;52.13;101878.98;104745;1269;71316;-61
2023/01/08 10:33:04;;;;;;;24.30;10.30;;;;;;;-1.71;52.23;101884.82;104530;1270;75261;-60
2023/01/08 10:35:36;;;;;;;27.00;9.90;;;;;;;-1.73;51.95;101882.77;104713;1264;61192;-61
2023/01/08 10:38:03;;;;;;;22.60;10.10;;;;;;;-1.80;51.96;101881.08;104475;1264;62195;-61
2023/01/08 10:40:43;;;;;;;19.70;9.20;;;;;;;-1.84;52.31;101884.02;104655;1264;74450;-61
2023/01/08 10:43:28;;;;;;;18.70;8.40;;;;;;;-1.88;52.32;101884.39;104521;1264;71425;-61
2023/01/08 10:46:02;;;;;;;17.60;7.50;;;;;;;-1.92;52.24;101881.14;104759;1264;74845;-61
2023/01/08 10:48:33;;;;;;;19.40;8.70;;;;;;;-1.97;52.31;101874.80;104751;1269;61420;-61
2023/01/08 10:51:13;;;;;;;19.10;7.20;;;;;;;-2.05;52.46;101870.52;104721;1264;61342;-62
2023/01/08 10:53:42;;;;;;;16.10;7.90;;;;;;;-2.10;52.65;101870.70;104777;1264;75333;-60
2023/01/08 10:56:23;;;;;;;23.40;7.30;;;;;;;-2.14;52.77;101866.27;104829;1267;72394;-61
2023/01/08 10:58:50;;;;;;;16.00;5.60;;;;;;;-2.17;52.96;101864.73;104609;1264;74874;-61
2023/01/08 11:01:25;;;;;;;15.30;8.10;;;;;;;-2.22;53.02;101866.63;104880;1264;62309;-61
2023/01/08 11:04:05;;;;;;;13.80;6.10;;;;;;;-2.26;53.15;101863.20;104660;1268;60929;-61
2023/01/08 11:06:35;;;;;;;15.40;7.50;;;;;;;-2.26;53.44;101858.56;104588;1264;74079;-61
2023/01/08 11:09:14;;;;;;;13.10;5.70;;;;;;;-2.24;53.53;101861.48;104885;1264;72348;-61
2023/01/08 11:11:41;;;;;;;14.70;7.30;;;;;;;-2.22;53.53;101856.14;104538;1264;74841;-61
2023/01/08 11:14:25;;;;;;;14.20;5.90;;;;;;;-2.21;53.55;101855.95;107062;1264;62460;-60
2023/01/08 11:16:52;;;;;;;10.80;4.00;;;;;;;-2.19;53.59;101856.65;104557;1267;62315;-62
2023/01/08 11:19:26;;;;;;;12.80;4.80;;;;;;;-2.16;53.62;101854.73;104526;1267;74026;-62
2023/01/08 11:22:17;;;;;;;12.70;5.10;;;;;;;-2.12;53.48;101855.95;104705;1267;72162;-61
2023/01/08 11:24:45;;;;;;;13.40;5.60;;;;;;;-2.10;53.41;101855.92;104657;1267;75041;-61
2023/01/08 11:27:12;;;;;;;11.80;4.50;;;;;;;-2.10;53.38;101855.75;104966;1269;61288;-61
2023/01/08 11:30:17;;;;;;;12.40;4.60;;;;;;;-2.10;53.40;101859.35;104857;1266;60343;-62
2023/01/08 11:32:57;;;;;;;12.00;4.60;;;;;;;-2.11;53.41;101852.49;104870;1267;75312;-64
2023/01/08 11:35:28;;;;;;;15.20;5.30;;;;;;;-2.08;53.41;101845.59;105229;1258;72616;-61
2023/01/08 11:38:01;;;;;;;12.30;5.50;;;;;;;-2.03;53.34;101844.38;105055;1257;74856;-60
2023/01/08 11:40:52;;;;;;;14.50;5.90;;;;;;;-1.98;53.24;101848.66;105105;1260;62662;-62
2023/01/08 11:43:31;;;;;;;10.50;4.30;;;;;;;-1.97;53.18;101852.42;105181;1262;62309;-61
2023/01/08 11:46:13;;;;;;;9.00;4.10;;;;;;;-1.96;53.15;101849.33;105179;1257;75506;-61
2023/01/08 11:48:49;;;;;;;11.00;3.70;;;;;;;-1.93;53.19;101848.97;105065;1261;71084;-61
2023/01/08 11:51:29;;;;;;;8.40;3.90;;;;;;;-1.90;52.99;101847.58;105526;1262;74821;-62
2023/01/08 11:54:04;;;;;;;11.30;4.70;;;;;;;-1.87;52.91;101850.50;105142;1257;62390;-62
2023/01/08 11:56:38;;;;;;;12.60;5.30;;;;;;;-1.84;52.81;101854.61;105140;1257;61518;-61
2023/01/08 11:59:27;;;;;;;13.40;4.30;;;;;;;-1.81;52.70;101850.64;105144;1257;75150;-60
2023/01/08 12:02:32;;;;;;;9.30;4.10;;;;;;;-1.78;52.51;101848.90;105137;1262;71638;-60
2023/01/08 12:05:25;;;;;;;11.60;3.80;;;;;;;-1.71;52.57;101849.38;105094;1257;74598;-62
2023/01/08 12:52:03;;;;;;;15.40;5.90;;;;;;;-0.62;47.64;101811.99;106101;1266;60072;-63
2023/01/08 12:54:36;;;;;;;11.00;4.00;;;;;;;-0.69;47.37;101808.45;107471;1246;60043;-61
2023/01/08 12:57:24;;;;;;;6.10;2.80;;;;;;;-0.72;47.46;101799.52;107523;1249;73598;-61
2023/01/08 12:59:55;;;;;;;10.80;4.00;;;;;;;-0.38;47.15;101798.10;107215;1246;70989;-60
2023/01/08 13:02:41;;;;;;;14.80;5.60;;;;;;;0.36;46.32;101795.23;107000;1246;73398;-62
2023/01/08 13:05:17;;;;;;;17.30;6.10;;;;;;;0.70;45.61;101798.50;107222;1246;61084;-62
2023/01/08 13:07:56;;;;;;;10.20;4.80;;;;;;;0.76;44.61;101795.48;107218;1248;60954;-61
2023/01/08 13:10:37;;;;;;;11.40;5.80;;;;;;;0.88;43.96;101801.48;107247;1248;73991;-61
2023/01/08 13:13:06;;;;;;;12.70;4.50;;;;;;;0.65;43.62;101805.66;107544;1250;70996;-61
2023/01/08 13:15:33;;;;;;;9.80;3.90;;;;;;;0.41;43.44;101802.41;107470;1250;73235;-60
2023/01/08 13:18:15;;;;;;;12.90;5.70;;;;;;;0.09;43.82;101799.94;107805;1246;61107;-61
2023/01/08 13:20:42;;;;;;;15.00;5.10;;;;;;;-0.21;44.06;101799.45;107044;1246;61049;-61
2023/01/08 13:23:20;;;;;;;17.60;4.60;;;;;;;-0.48;44.24;101798.91;107105;1246;73830;-60
2023/01/08 13:25:52;;;;;;;9.10;4.50;;;;;;;-0.79;44.59;101802.01;107009;1254;70303;-61
2023/01/08 13:28:30;;;;;;;9.80;4.30;;;;;;;-1.05;45.08;101803.13;107611;1246;73518;-61
2023/01/08 13:31:07;;;;;;;11.10;4.30;;;;;;;-1.23;45.48;101802.59;106974;1246;61139;-61
2023/01/08 13:33:34;;;;;;;11.00;4.50;;;;;;;-1.36;45.96;101806.64;107138;1246;60943;-59
2023/01/08 13:36:24;;;;;;;10.20;4.80;;;;;;;-1.47;46.13;101806.38;107028;1250;73802;-60
2023/01/08 13:39:09;;;;;;;12.30;5.50;;;;;;;-1.59;46.47;101799.23;107201;1246;71184;-61
2023/01/08 13:41:40;;;;;;;12.60;4.00;;;;;;;-1.68;46.60;101797.74;107221;1246;73263;-62
2023/01/08 13:44:27;;;;;;;11.70;4.80;;;;;;;-1.76;46.63;101801.57;107355;1246;61300;-61
2023/01/08 13:46:56;;;;;;;11.30;4.30;;;;;;;-1.85;46.92;101802.67;107146;1250;61176;-61
2023/01/08 13:49:28;;;;;;;11.00;4.70;;;;;;;-1.94;47.11;101803.39;107367;1246;73088;-61
2023/01/08 13:51:55;;;;;;;14.20;5.60;;;;;;;-2.02;47.15;101798.45;107202;1246;71207;-60
2023/01/08 13:54:39;;;;;;;10.50;4.80;;;;;;;-2.09;47.42;101801.08;106875;1254;73377;-61
2023/01/08 13:57:11;;;;;;;18.80;6.00;;;;;;;-2.15;47.53;101802.13;107403;1246;60193;-63
2023/01/08 13:59:42;;;;;;;13.10;4.20;;;;;;;-2.20;47.62;101798.20;107424;1246;60169;-61
2023/01/08 14:02:43;;;;;;;12.40;5.80;;;;;;;-2.24;47.72;101795.81;107119;1250;73850;-63
2023/01/08 14:05:17;;;;;;;10.60;4.70;;;;;;;-2.30;47.90;101796.85;106640;1251;70071;-61
2023/01/08 14:07:47;;;;;;;11.90;4.60;;;;;;;-2.36;47.93;101791.58;107069;1252;73635;-61
2023/01/08 14:10:14;;;;;;;11.90;5.50;;;;;;;-2.43;48.13;101784.36;107124;1250;60410;-60
2023/01/08 14:12:41;;;;;;;11.00;4.40;;;;;;;-2.49;48.23;101781.47;107286;1246;59545;-59
2023/01/08 14:15:24;;;;;;;15.00;5.00;;;;;;;-2.57;48.37;101783.90;106926;1253;73599;-62
2023/01/08 14:17:52;;;;;;;15.10;6.00;;;;;;;-2.68;48.58;101780.84;107259;1246;71337;-61
2023/01/08 14:20:22;;;;;;;11.90;4.20;;;;;;;-2.75;48.65;101778.10;106739;1253;73610;-61
2023/01/08 14:22:49;;;;;;;12.80;5.50;;;;;;;-2.81;48.85;101773.65;107672;1239;60019;-62
2023/01/08 14:25:16;;;;;;;13.90;4.50;;;;;;;-2.88;48.96;101770.06;107708;1238;61114;-61
2023/01/08 14:27:53;;;;;;;10.60;4.50;;;;;;;-2.95;49.06;101765.96;107893;1241;73844;-61
2023/01/08 14:30:20;;;;;;;13.50;5.00;;;;;;;-3.02;49.10;101765.96;108170;1242;70083;-64
2023/01/08 14:32:48;;;;;;;18.20;4.00;;;;;;;-3.08;49.19;101759.96;107963;1242;73748;-63
2023/01/08 14:35:19;;;;;;;12.70;3.60;;;;;;;-3.13;49.30;101764.95;107808;1238;60732;-62
2023/01/08 14:37:50;;;;;;;10.00;3.90;;;;;;;-3.19;49.31;101763.23;107937;1240;61192;-62
2023/01/08 14:40:26;;;;;;;16.60;4.40;;;;;;;-3.23;49.48;101760.49;107900;1244;73797;-63
2023/01/08 14:42:54;;;;;;;10.50;3.40;;;;;;;-3.29;49.54;101759.13;107799;1239;71259;-62
2023/01/08 14:45:23;;;;;;;14.80;4.40;;;;;;;-3.34;49.63;101760.17;107618;1240;73620;-63
2023/01/08 14:47:53;;;;;;;12.40;5.50;;;;;;;-3.40;49.42;101757.59;108106;1239;61397;-62
2023/01/08 14:50:25;;;;;;;9.80;4.10;;;;;;;-3.45;49.47;101758.10;108167;1239;59559;-62
2023/01/08 14:53:13;;;;;;;14.80;6.70;;;;;;;-3.47;49.60;101758.61;108119;1239;73774;-61
2023/01/08 14:55:41;;;;;;;11.10;4.50;;;;;;;-3.51;49.69;101756.73;107952;1236;71199;-62
2023/01/08 14:58:15;;;;;;;10.00;2.90;;;;;;;-3.56;49.82;101753.30;108199;1239;72897;-62
2023/01/08 15:00:42;;;;;;;12.60;4.40;;;;;;;-3.60;49.82;101746.95;107988;1241;60235;-61
2023/01/08 15:03:45;;;;;;;10.60;4.20;;;;;;;-3.62;50.00;101749.19;107852;1237;61083;-62
2023/01/08 15:06:25;;;;;;;12.30;4.60;;;;;;;-3.66;50.05;101750.02;107736;1239;74182;-61
2023/01/08 15:08:52;;;;;;;12.80;4.50;;;;;;;-3.68;50.20;101749.87;108121;1237;70330;-62
2023/01/08 15:11:24;;;;;;;11.80;5.40;;;;;;;-3.70;50.42;101748.84;108118;1247;73286;-60
2023/01/08 15:13:56;;;;;;;12.50;4.20;;;;;;;-3.73;50.47;101748.66;108451;1235;60993;-60
2023/01/08 15:16:28;;;;;;;15.50;5.20;;;;;;;-3.76;50.60;101748.98;108113;1236;61106;-61
2023/01/08 15:19:14;;;;;;;11.20;3.90;;;;;;;-3.80;50.74;101751.38;108189;1239;72754;-63
2023/01/08 15:21:47;;;;;;;12.10;3.40;;;;;;;-3.83;50.91;101752.76;108451;1235;71643;-61
2023/01/08 15:24:26;;;;;;;15.90;5.60;;;;;;;-3.85;50.99;101753.27;107923;1235;73232;-63
2023/01/08 15:26:53;;;;;;;11.40;5.20;;;;;;;-3.87;51.03;101756.52;108142;1235;59848;-62
2023/01/08 15:29:32;;;;;;;16.10;5.80;;;;;;;-3.89;51.19;101754.81;108244;1236;61014;-61
2023/01/08 15:32:08;;;;;;;17.30;6.00;;;;;;;-3.90;51.35;101758.91;108274;1236;73241;-62
2023/01/08 15:34:38;;;;;;;14.10;5.80;;;;;;;-3.93;51.41;101754.80;108025;1236;71067;-63
2023/01/08 15:37:04;;;;;;;17.90;5.20;;;;;;;-3.94;51.49;101756.52;107999;1237;73699;-61
2023/01/08 15:39:32;;;;;;;14.90;5.40;;;;;;;-3.97;51.54;101751.36;108151;1235;61092;-61